Latest Weather Observations for Inner Beacon

IDQ60801

Issued at 5:02 am EST Saturday 10 December 2016 (issued every 30 minutes, with the page automatically refreshed every 10 minutes)

About weather observations | Map of weather stations | Latest weather observations for QLD | Other Formats
Station Details ID: 040926 Name: INNER RECIPROCAL MARKER Lat: -27.26 Lon: 153.24 Height: 20.0 m
Data from the previous 72 hours. | See also: Recent months for locations in Queensland
Date/Time
EST
Temp
°C
App
Temp
°C
Dew
Point
°C
Rel
Hum
%
Delta-T
°C
Wind Press
QNH
hPa
Press
MSL
hPa
Rain since
9am
mm
Dir  Spd
km/h
Gust
km/h
Spd
kts
Gust
kts
10/04:30am - - - - - SE 37 43 20 23 - - -
10/04:00am - - - - - SE 39 46 21 25 - - -
10/03:30am - - - - - SE 39 46 21 25 - - -
10/03:00am - - - - - SE 39 48 21 26 - - -
10/02:30am - - - - - SE 37 44 20 24 - - -
10/02:00am - - - - - SE 33 43 18 23 - - -
10/01:30am - - - - - SE 35 41 19 22 - - -
10/01:00am - - - - - ESE 33 39 18 21 - - -
10/12:30am - - - - - ESE 32 39 17 21 - - -
10/12:00am - - - - - ESE 37 43 20 23 - - -
 
Date/Time
EST
Temp
°C
App
Temp
°C
Dew
Point
°C
Rel
Hum
%
Delta-T
°C
Wind Press
QNH
hPa
Press
MSL
hPa
Rain since
9am
mm
Dir  Spd
km/h
Gust
km/h
Spd
kts
Gust
kts
09/11:30pm - - - - - SE 33 37 18 20 - - -
09/11:00pm - - - - - S 30 35 16 19 - - -
09/10:30pm - - - - - S 24 30 13 16 - - -
09/10:00pm - - - - - S 17 26 9 14 - - -
09/09:30pm - - - - - NNW 15 17 8 9 - - -
09/09:00pm - - - - - NNW 15 17 8 9 - - -
09/08:30pm - - - - - N 15 17 8 9 - - -
09/08:00pm - - - - - N 13 15 7 8 - - -
09/07:30pm - - - - - N 13 19 7 10 - - -
09/07:00pm - - - - - N 9 13 5 7 - - -
09/06:30pm - - - - - WNW 6 7 3 4 - - -
09/06:00pm - - - - - WNW 9 11 5 6 - - -
09/05:30pm - - - - - W 13 15 7 8 - - -
09/05:00pm - - - - - W 15 17 8 9 - - -
09/04:30pm - - - - - W 9 11 5 6 - - -
09/04:00pm - - - - - WNW 6 7 3 4 - - -
09/03:30pm - - - - - NNW 7 9 4 5 - - -
09/03:00pm - - - - - NNW 11 15 6 8 - - -
09/02:30pm - - - - - NNW 15 19 8 10 - - -
09/02:00pm - - - - - NNW 9 13 5 7 - - -
09/01:30pm - - - - - W 2 4 1 2 - - -
09/01:00pm - - - - - WNW 6 7 3 4 - - -
09/12:30pm - - - - - NW 6 7 3 4 - - -
09/12:00pm - - - - - WSW 15 20 8 11 - - -
09/11:30am - - - - - SW 13 17 7 9 - - -
09/11:00am - - - - - SW 17 20 9 11 - - -
09/10:30am - - - - - W 24 30 13 16 - - -
09/10:00am - - - - - WNW 24 30 13 16 - - -
09/09:30am - - - - - WNW 24 30 13 16 - - -
09/09:00am - - - - - NW 20 24 11 13 - - -
09/08:30am - - - - - NW 28 30 15 16 - - -
09/08:00am - - - - - NW 28 30 15 16 - - -
09/07:30am - - - - - NW 22 28 12 15 - - -
09/07:00am - - - - - NW 26 32 14 17 - - -
09/06:30am - - - - - NW 24 32 13 17 - - -
09/06:00am - - - - - NW 24 28 13 15 - - -
09/05:30am - - - - - NW 17 20 9 11 - - -
09/05:00am - - - - - NW 22 26 12 14 - - -
09/04:30am - - - - - NW 22 24 12 13 - - -
09/04:00am - - - - - NW 24 28 13 15 - - -
09/03:30am - - - - - NW 26 32 14 17 - - -
09/03:00am - - - - - NW 24 28 13 15 - - -
09/02:30am - - - - - NNW 20 24 11 13 - - -
09/02:00am - - - - - NW 24 28 13 15 - - -
09/01:30am - - - - - WNW 35 67 19 36 - - -
09/01:25am - - - - - WNW 39 67 21 36 - - -
09/01:22am - - - - - WNW 37 52 20 28 - - -
09/01:00am - - - - - NW 26 30 14 16 - - -
09/12:30am - - - - - NW 24 28 13 15 - - -
09/12:00am - - - - - NNW 26 30 14 16 - - -
 
Date/Time
EST
Temp
°C
App
Temp
°C
Dew
Point
°C
Rel
Hum
%
Delta-T
°C
Wind Press
QNH
hPa
Press
MSL
hPa
Rain since
9am
mm
Dir  Spd
km/h
Gust
km/h
Spd
kts
Gust
kts
08/11:30pm - - - - - NNW 32 37 17 20 - - -
08/11:00pm - - - - - N 32 39 17 21 - - -
08/10:30pm - - - - - NNW 19 22 10 12 - - -
08/10:00pm - - - - - NNW 17 20 9 11 - - -
08/09:30pm - - - - - N 26 30 14 16 - - -
08/09:00pm - - - - - N 30 35 16 19 - - -
08/08:30pm - - - - - N 39 46 21 25 - - -
08/08:00pm - - - - - NNE 41 48 22 26 - - -
08/07:30pm - - - - - N 28 33 15 18 - - -
08/07:00pm - - - - - N 26 32 14 17 - - -
08/06:30pm - - - - - NNW 19 22 10 12 - - -
08/06:00pm - - - - - N 35 41 19 22 - - -
08/05:30pm - - - - - N 37 43 20 23 - - -
08/05:00pm - - - - - N 35 41 19 22 - - -
08/04:30pm - - - - - NNE 39 46 21 25 - - -
08/04:00pm - - - - - NNE 39 44 21 24 - - -
08/03:30pm - - - - - N 35 41 19 22 - - -
08/03:00pm - - - - - NNE 33 39 18 21 - - -
08/02:30pm - - - - - NNE 33 37 18 20 - - -
08/02:00pm - - - - - NNE 30 35 16 19 - - -
08/01:30pm - - - - - N 26 30 14 16 - - -
08/01:00pm - - - - - N 26 30 14 16 - - -
08/12:30pm - - - - - N 26 30 14 16 - - -
08/12:00pm - - - - - N 24 28 13 15 - - -
08/11:30am - - - - - N 22 26 12 14 - - -
08/11:00am - - - - - N 22 24 12 13 - - -
08/10:30am - - - - - N 20 24 11 13 - - -
08/10:00am - - - - - N 20 24 11 13 - - -
08/09:30am - - - - - N 19 20 10 11 - - -
08/09:00am - - - - - NNE 17 20 9 11 - - -
08/08:30am - - - - - ENE 11 17 6 9 - - -
08/08:00am - - - - - E 11 15 6 8 - - -
08/07:30am - - - - - E 13 17 7 9 - - -
08/07:00am - - - - - E 17 20 9 11 - - -
08/06:30am - - - - - ESE 13 17 7 9 - - -
08/06:00am - - - - - E 15 20 8 11 - - -
08/05:30am - - - - - ESE 15 20 8 11 - - -
08/05:00am - - - - - ESE 17 19 9 10 - - -
08/04:30am - - - - - ESE 15 17 8 9 - - -
08/04:00am - - - - - ESE 15 17 8 9 - - -
08/03:30am - - - - - ESE 13 17 7 9 - - -
08/03:00am - - - - - ESE 15 17 8 9 - - -
08/02:30am - - - - - ESE 15 20 8 11 - - -
08/02:00am - - - - - SSE 15 17 8 9 - - -
08/01:30am - - - - - SE 22 28 12 15 - - -
08/01:00am - - - - - SSE 20 22 11 12 - - -
08/12:30am - - - - - ESE 15 17 8 9 - - -
08/12:00am - - - - - SE 13 17 7 9 - - -
 
Date/Time
EST
Temp
°C
App
Temp
°C
Dew
Point
°C
Rel
Hum
%
Delta-T
°C
Wind Press
QNH
hPa
Press
MSL
hPa
Rain since
9am
mm
Dir  Spd
km/h
Gust
km/h
Spd
kts
Gust
kts
07/11:30pm - - - - - SSE 13 17 7 9 - - -
07/11:00pm - - - - - SE 17 19 9 10 - - -
07/10:30pm - - - - - E 20 24 11 13 - - -
07/10:00pm - - - - - SE 26 30 14 16 - - -
07/09:30pm - - - - - SSE 24 28 13 15 - - -
07/09:00pm - - - - - SSE 24 30 13 16 - - -
07/08:30pm - - - - - ESE 9 11 5 6 - - -
07/08:00pm - - - - - ENE 11 13 6 7 - - -
07/07:30pm - - - - - NE 17 20 9 11 - - -
07/07:00pm - - - - - NE 15 17 8 9 - - -
07/06:30pm - - - - - NE 13 15 7 8 - - -
07/06:00pm - - - - - NE 20 24 11 13 - - -
07/05:30pm - - - - - NNE 20 24 11 13 - - -
07/05:00pm - - - - - NE 24 30 13 16 - - -
07/04:30pm - - - - - NE 30 35 16 19 - - -
07/04:00pm - - - - - NNE 28 32 15 17 - - -
07/03:30pm - - - - - NNE 28 32 15 17 - - -
07/03:00pm - - - - - N 26 32 14 17 - - -
07/02:30pm - - - - - N 24 28 13 15 - - -
07/02:00pm - - - - - N 26 30 14 16 - - -
07/01:30pm - - - - - N 30 37 16 20 - - -
07/01:00pm - - - - - N 28 32 15 17 - - -
07/12:30pm - - - - - N 28 30 15 16 - - -
07/12:00pm - - - - - N 24 28 13 15 - - -
07/11:30am - - - - - N 20 24 11 13 - - -
07/11:00am - - - - - NNW 19 24 10 13 - - -
07/10:30am - - - - - N 22 26 12 14 - - -
07/10:00am - - - - - N 22 26 12 14 - - -
07/09:30am - - - - - N 22 26 12 14 - - -
07/09:00am - - - - - N 20 24 11 13 - - -
07/08:30am - - - - - NNW 15 17 8 9 - - -
07/08:00am - - - - - N 20 24 11 13 - - -
07/07:30am - - - - - N 15 20 8 11 - - -
07/07:00am - - - - - NNW 7 9 4 5 - - -
07/06:30am - - - - - NW 7 9 4 5 - - -
07/06:00am - - - - - N 7 9 4 5 - - -
07/05:30am - - - - - N 17 26 9 14 - - -

Other Formats:

Comma delimited format used in spreadsheet applications
http://www.bom.gov.au/fwo/IDQ60801/IDQ60801.94590.axf

JavaScript Object Notation format (JSON) in row-major order
http://www.bom.gov.au/fwo/IDQ60801/IDQ60801.94590.json